sensor_id;sensor_type;location;lat;lon;timestamp;temperature;humidity
65766;SHT31;52915;53.718;19.946;2022-09-03T00:04:54;10.13;82.33
65766;SHT31;52915;53.718;19.946;2022-09-03T00:11:13;9.96;83.32
65766;SHT31;52915;53.718;19.946;2022-09-03T00:16:05;9.86;83.65
65766;SHT31;52915;53.718;19.946;2022-09-03T00:21:17;9.81;83.87
65766;SHT31;52915;53.718;19.946;2022-09-03T00:26:44;9.89;83.52
65766;SHT31;52915;53.718;19.946;2022-09-03T00:31:57;9.93;83.51
65766;SHT31;52915;53.718;19.946;2022-09-03T00:37:10;9.87;83.99
65766;SHT31;52915;53.718;19.946;2022-09-03T00:47:57;10.07;83.61
65766;SHT31;52915;53.718;19.946;2022-09-03T00:53:23;10.05;83.53
65766;SHT31;52915;53.718;19.946;2022-09-03T01:04:32;10.00;83.19
65766;SHT31;52915;53.718;19.946;2022-09-03T01:09:57;9.90;83.21
65766;SHT31;52915;53.718;19.946;2022-09-03T01:15:29;9.87;83.32
65766;SHT31;52915;53.718;19.946;2022-09-03T01:32:50;9.75;83.29
65766;SHT31;52915;53.718;19.946;2022-09-03T01:38:16;9.70;83.12
65766;SHT31;52915;53.718;19.946;2022-09-03T01:44:00;9.78;82.68
65766;SHT31;52915;53.718;19.946;2022-09-03T01:49:40;9.78;82.29
65766;SHT31;52915;53.718;19.946;2022-09-03T01:55:17;9.69;82.03
65766;SHT31;52915;53.718;19.946;2022-09-03T02:00:37;9.57;82.04
65766;SHT31;52915;53.718;19.946;2022-09-03T02:05:45;9.58;81.86
65766;SHT31;52915;53.718;19.946;2022-09-03T02:10:54;9.51;81.89
65766;SHT31;52915;53.718;19.946;2022-09-03T02:16:22;9.34;82.44
65766;SHT31;52915;53.718;19.946;2022-09-03T02:21:39;9.19;82.74
65766;SHT31;52915;53.718;19.946;2022-09-03T02:26:52;9.07;83.10
65766;SHT31;52915;53.718;19.946;2022-09-03T02:31:57;9.08;83.00
65766;SHT31;52915;53.718;19.946;2022-09-03T02:37:10;9.05;83.25
65766;SHT31;52915;53.718;19.946;2022-09-03T02:42:19;8.95;83.36
65766;SHT31;52915;53.718;19.946;2022-09-03T02:47:24;8.80;83.59
65766;SHT31;52915;53.718;19.946;2022-09-03T02:52:34;8.71;83.69
65766;SHT31;52915;53.718;19.946;2022-09-03T02:57:38;8.73;83.54
65766;SHT31;52915;53.718;19.946;2022-09-03T03:02:42;8.69;83.63
65766;SHT31;52915;53.718;19.946;2022-09-03T03:07:47;8.61;83.92
65766;SHT31;52915;53.718;19.946;2022-09-03T03:12:50;8.60;84.18
65766;SHT31;52915;53.718;19.946;2022-09-03T03:17:55;8.66;84.39
65766;SHT31;52915;53.718;19.946;2022-09-03T03:23:03;8.72;84.22
65766;SHT31;52915;53.718;19.946;2022-09-03T03:28:11;8.69;84.03
65766;SHT31;52915;53.718;19.946;2022-09-03T03:33:20;8.42;84.35
65766;SHT31;52915;53.718;19.946;2022-09-03T03:38:25;8.31;84.65
65766;SHT31;52915;53.718;19.946;2022-09-03T03:43:29;8.30;84.79
65766;SHT31;52915;53.718;19.946;2022-09-03T03:48:33;8.28;84.74
65766;SHT31;52915;53.718;19.946;2022-09-03T03:53:38;8.26;84.64
65766;SHT31;52915;53.718;19.946;2022-09-03T03:58:42;8.22;84.50
65766;SHT31;52915;53.718;19.946;2022-09-03T04:03:47;8.16;84.59
65766;SHT31;52915;53.718;19.946;2022-09-03T04:08:52;8.08;85.16
65766;SHT31;52915;53.718;19.946;2022-09-03T04:13:56;8.05;85.50
65766;SHT31;52915;53.718;19.946;2022-09-03T04:19:03;8.13;85.38
65766;SHT31;52915;53.718;19.946;2022-09-03T04:24:07;8.24;85.10
65766;SHT31;52915;53.718;19.946;2022-09-03T04:29:12;8.36;84.93
65766;SHT31;52915;53.718;19.946;2022-09-03T04:34:16;8.47;84.96
65766;SHT31;52915;53.718;19.946;2022-09-03T04:39:20;8.56;85.07
65766;SHT31;52915;53.718;19.946;2022-09-03T04:44:24;8.74;85.01
65766;SHT31;52915;53.718;19.946;2022-09-03T04:49:28;9.29;84.64
65766;SHT31;52915;53.718;19.946;2022-09-03T04:54:33;10.09;83.14
65766;SHT31;52915;53.718;19.946;2022-09-03T04:59:37;10.47;81.92
65766;SHT31;52915;53.718;19.946;2022-09-03T05:04:43;10.54;81.12
65766;SHT31;52915;53.718;19.946;2022-09-03T05:09:49;10.38;81.69
65766;SHT31;52915;53.718;19.946;2022-09-03T05:14:54;10.31;81.97
65766;SHT31;52915;53.718;19.946;2022-09-03T05:19:58;10.55;82.00
65766;SHT31;52915;53.718;19.946;2022-09-03T05:25:02;10.76;81.43
65766;SHT31;52915;53.718;19.946;2022-09-03T05:30:07;10.85;81.25
65766;SHT31;52915;53.718;19.946;2022-09-03T05:35:11;11.02;81.07
65766;SHT31;52915;53.718;19.946;2022-09-03T05:40:15;11.22;80.57
65766;SHT31;52915;53.718;19.946;2022-09-03T05:45:20;11.33;80.40
65766;SHT31;52915;53.718;19.946;2022-09-03T05:50:25;11.63;80.04
65766;SHT31;52915;53.718;19.946;2022-09-03T05:55:29;12.00;79.14
65766;SHT31;52915;53.718;19.946;2022-09-03T06:00:34;12.20;78.08
65766;SHT31;52915;53.718;19.946;2022-09-03T06:05:39;12.27;77.06
65766;SHT31;52915;53.718;19.946;2022-09-03T06:11:00;12.50;76.89
65766;SHT31;52915;53.718;19.946;2022-09-03T06:16:07;12.79;76.73
65766;SHT31;52915;53.718;19.946;2022-09-03T06:21:12;12.99;75.45
65766;SHT31;52915;53.718;19.946;2022-09-03T06:26:17;13.18;74.76
65766;SHT31;52915;53.718;19.946;2022-09-03T06:31:23;13.42;74.03
65766;SHT31;52915;53.718;19.946;2022-09-03T06:36:28;13.77;73.76
65766;SHT31;52915;53.718;19.946;2022-09-03T06:41:33;14.07;72.94
65766;SHT31;52915;53.718;19.946;2022-09-03T06:46:38;14.40;72.36
65766;SHT31;52915;53.718;19.946;2022-09-03T06:51:44;14.76;71.25
65766;SHT31;52915;53.718;19.946;2022-09-03T06:56:49;15.00;70.25
65766;SHT31;52915;53.718;19.946;2022-09-03T07:01:56;15.33;69.06
65766;SHT31;52915;53.718;19.946;2022-09-03T07:07:03;15.49;67.46
65766;SHT31;52915;53.718;19.946;2022-09-03T07:12:17;15.53;65.25
65766;SHT31;52915;53.718;19.946;2022-09-03T07:17:22;15.55;64.43
65766;SHT31;52915;53.718;19.946;2022-09-03T07:22:29;15.71;64.12
65766;SHT31;52915;53.718;19.946;2022-09-03T07:27:37;16.05;64.28
65766;SHT31;52915;53.718;19.946;2022-09-03T07:32:45;16.46;62.96
65766;SHT31;52915;53.718;19.946;2022-09-03T07:37:54;16.77;62.16
65766;SHT31;52915;53.718;19.946;2022-09-03T07:42:58;17.04;60.50
65766;SHT31;52915;53.718;19.946;2022-09-03T07:48:05;17.22;60.10
65766;SHT31;52915;53.718;19.946;2022-09-03T07:53:10;17.52;59.58
65766;SHT31;52915;53.718;19.946;2022-09-03T07:58:14;17.78;58.29
65766;SHT31;52915;53.718;19.946;2022-09-03T08:03:20;17.93;57.10
65766;SHT31;52915;53.718;19.946;2022-09-03T08:08:24;18.21;56.38
65766;SHT31;52915;53.718;19.946;2022-09-03T08:13:37;18.64;55.63
65766;SHT31;52915;53.718;19.946;2022-09-03T08:18:47;18.81;53.58
65766;SHT31;52915;53.718;19.946;2022-09-03T08:23:54;18.84;53.57
65766;SHT31;52915;53.718;19.946;2022-09-03T08:29:09;18.91;52.85
65766;SHT31;52915;53.718;19.946;2022-09-03T08:34:13;18.99;52.60
65766;SHT31;52915;53.718;19.946;2022-09-03T08:39:20;19.09;53.10
65766;SHT31;52915;53.718;19.946;2022-09-03T08:55:50;19.82;51.55
65766;SHT31;52915;53.718;19.946;2022-09-03T09:12:02;20.73;47.73
65766;SHT31;52915;53.718;19.946;2022-09-03T09:17:22;21.14;46.19
65766;SHT31;52915;53.718;19.946;2022-09-03T09:22:44;21.32;45.16
65766;SHT31;52915;53.718;19.946;2022-09-03T09:28:02;21.54;43.72
65766;SHT31;52915;53.718;19.946;2022-09-03T09:33:33;21.72;41.66
65766;SHT31;52915;53.718;19.946;2022-09-03T09:38:38;21.72;42.37
65766;SHT31;52915;53.718;19.946;2022-09-03T09:43:42;21.70;42.88
65766;SHT31;52915;53.718;19.946;2022-09-03T09:48:48;21.79;42.10
65766;SHT31;52915;53.718;19.946;2022-09-03T09:54:01;21.82;41.51
65766;SHT31;52915;53.718;19.946;2022-09-03T09:59:13;21.84;40.51
65766;SHT31;52915;53.718;19.946;2022-09-03T10:04:22;22.06;40.68
65766;SHT31;52915;53.718;19.946;2022-09-03T10:09:35;22.13;39.60
65766;SHT31;52915;53.718;19.946;2022-09-03T10:14:41;22.22;39.40
65766;SHT31;52915;53.718;19.946;2022-09-03T10:25:41;22.57;38.76
65766;SHT31;52915;53.718;19.946;2022-09-03T10:59:01;23.28;37.42
65766;SHT31;52915;53.718;19.946;2022-09-03T11:04:37;23.30;36.19
65766;SHT31;52915;53.718;19.946;2022-09-03T11:10:27;23.67;36.37
65766;SHT31;52915;53.718;19.946;2022-09-03T11:15:51;23.86;35.56
65766;SHT31;52915;53.718;19.946;2022-09-03T11:21:05;23.71;35.54
65766;SHT31;52915;53.718;19.946;2022-09-03T11:26:17;23.66;34.69
65766;SHT31;52915;53.718;19.946;2022-09-03T11:37:18;23.57;33.81
65766;SHT31;52915;53.718;19.946;2022-09-03T11:42:30;23.77;34.15
65766;SHT31;52915;53.718;19.946;2022-09-03T11:47:42;23.92;34.17
65766;SHT31;52915;53.718;19.946;2022-09-03T11:52:52;23.58;32.90
65766;SHT31;52915;53.718;19.946;2022-09-03T12:03:42;23.56;33.69
65766;SHT31;52915;53.718;19.946;2022-09-03T12:08:57;23.73;34.21
65766;SHT31;52915;53.718;19.946;2022-09-03T12:14:46;24.16;33.62
65766;SHT31;52915;53.718;19.946;2022-09-03T12:20:13;24.23;33.26
65766;SHT31;52915;53.718;19.946;2022-09-03T12:25:19;24.29;32.01
65766;SHT31;52915;53.718;19.946;2022-09-03T12:30:23;23.97;32.46
65766;SHT31;52915;53.718;19.946;2022-09-03T12:35:28;23.56;33.49
65766;SHT31;52915;53.718;19.946;2022-09-03T12:40:52;23.61;34.13
65766;SHT31;52915;53.718;19.946;2022-09-03T12:46:17;23.77;34.74
65766;SHT31;52915;53.718;19.946;2022-09-03T12:51:37;23.64;35.34
65766;SHT31;52915;53.718;19.946;2022-09-03T12:56:58;23.59;34.69
65766;SHT31;52915;53.718;19.946;2022-09-03T13:02:17;23.81;34.53
65766;SHT31;52915;53.718;19.946;2022-09-03T13:07:31;23.72;34.63
65766;SHT31;52915;53.718;19.946;2022-09-03T13:12:46;23.62;34.74
65766;SHT31;52915;53.718;19.946;2022-09-03T13:23:18;23.64;35.11
65766;SHT31;52915;53.718;19.946;2022-09-03T13:28:45;23.55;34.29
65766;SHT31;52915;53.718;19.946;2022-09-03T13:34:39;23.23;35.01
65766;SHT31;52915;53.718;19.946;2022-09-03T13:39:56;23.52;35.18
65766;SHT31;52915;53.718;19.946;2022-09-03T13:45:28;23.57;35.02
65766;SHT31;52915;53.718;19.946;2022-09-03T13:50:50;23.48;34.99
65766;SHT31;52915;53.718;19.946;2022-09-03T13:56:41;23.43;35.28
65766;SHT31;52915;53.718;19.946;2022-09-03T14:24:00;23.28;35.99
65766;SHT31;52915;53.718;19.946;2022-09-03T14:29:49;23.46;36.49
65766;SHT31;52915;53.718;19.946;2022-09-03T14:35:09;23.52;35.83
65766;SHT31;52915;53.718;19.946;2022-09-03T14:40:41;23.58;35.62
65766;SHT31;52915;53.718;19.946;2022-09-03T15:13:51;28.96;29.88
65766;SHT31;52915;53.718;19.946;2022-09-03T15:36:53;28.81;28.43
65766;SHT31;52915;53.718;19.946;2022-09-03T15:42:21;28.58;29.17
65766;SHT31;52915;53.718;19.946;2022-09-03T15:47:47;28.57;29.18
65766;SHT31;52915;53.718;19.946;2022-09-03T15:58:47;27.88;30.50
65766;SHT31;52915;53.718;19.946;2022-09-03T16:10:14;27.11;32.03
65766;SHT31;52915;53.718;19.946;2022-09-03T16:15:42;26.75;32.44
65766;SHT31;52915;53.718;19.946;2022-09-03T16:54:32;23.08;38.64
65766;SHT31;52915;53.718;19.946;2022-09-03T17:00:10;22.35;39.79
65766;SHT31;52915;53.718;19.946;2022-09-03T17:11:21;20.80;42.72
65766;SHT31;52915;53.718;19.946;2022-09-03T17:27:48;18.63;47.58
65766;SHT31;52915;53.718;19.946;2022-09-03T17:39:15;17.56;50.05
65766;SHT31;52915;53.718;19.946;2022-09-03T17:45:06;17.14;50.97
65766;SHT31;52915;53.718;19.946;2022-09-03T17:50:42;16.77;51.97
65766;SHT31;52915;53.718;19.946;2022-09-03T17:56:09;16.41;53.03
65766;SHT31;52915;53.718;19.946;2022-09-03T18:01:28;16.11;54.06
65766;SHT31;52915;53.718;19.946;2022-09-03T18:12:06;15.75;55.22
65766;SHT31;52915;53.718;19.946;2022-09-03T18:17:57;15.52;56.17
65766;SHT31;52915;53.718;19.946;2022-09-03T18:35:15;14.99;57.81
65766;SHT31;52915;53.718;19.946;2022-09-03T18:40:42;14.87;58.17
65766;SHT31;52915;53.718;19.946;2022-09-03T18:52:52;14.63;58.76
65766;SHT31;52915;53.718;19.946;2022-09-03T19:22:36;14.02;60.37
65766;SHT31;52915;53.718;19.946;2022-09-03T19:28:09;13.90;60.83
65766;SHT31;52915;53.718;19.946;2022-09-03T19:51:20;13.48;62.35
65766;SHT31;52915;53.718;19.946;2022-09-03T19:56:53;13.36;62.98
65766;SHT31;52915;53.718;19.946;2022-09-03T20:02:20;13.25;63.27
65766;SHT31;52915;53.718;19.946;2022-09-03T20:07:48;13.17;63.57
65766;SHT31;52915;53.718;19.946;2022-09-03T20:13:17;13.12;63.72
65766;SHT31;52915;53.718;19.946;2022-09-03T20:18:32;12.99;64.14
65766;SHT31;52915;53.718;19.946;2022-09-03T20:30:17;12.84;64.71
65766;SHT31;52915;53.718;19.946;2022-09-03T20:40:48;12.63;65.46
65766;SHT31;52915;53.718;19.946;2022-09-03T20:51:44;12.41;66.18
65766;SHT31;52915;53.718;19.946;2022-09-03T21:08:33;12.22;66.72
65766;SHT31;52915;53.718;19.946;2022-09-03T21:24:47;11.95;67.71
65766;SHT31;52915;53.718;19.946;2022-09-03T21:30:10;11.85;67.96
65766;SHT31;52915;53.718;19.946;2022-09-03T21:35:26;11.78;68.36
65766;SHT31;52915;53.718;19.946;2022-09-03T21:40:58;11.66;68.72
65766;SHT31;52915;53.718;19.946;2022-09-03T21:46:41;11.56;69.00
65766;SHT31;52915;53.718;19.946;2022-09-03T21:51:57;11.53;69.07
65766;SHT31;52915;53.718;19.946;2022-09-03T22:02:27;11.43;69.41
65766;SHT31;52915;53.718;19.946;2022-09-03T22:18:46;11.10;70.86
65766;SHT31;52915;53.718;19.946;2022-09-03T22:24:07;10.99;71.43
65766;SHT31;52915;53.718;19.946;2022-09-03T22:40:11;10.99;71.42
65766;SHT31;52915;53.718;19.946;2022-09-03T22:45:32;10.93;71.69
65766;SHT31;52915;53.718;19.946;2022-09-03T22:50:56;10.87;71.94
65766;SHT31;52915;53.718;19.946;2022-09-03T22:56:04;10.80;71.68
65766;SHT31;52915;53.718;19.946;2022-09-03T23:01:16;10.75;71.76
65766;SHT31;52915;53.718;19.946;2022-09-03T23:06:38;10.68;72.26
65766;SHT31;52915;53.718;19.946;2022-09-03T23:11:55;10.65;72.65
65766;SHT31;52915;53.718;19.946;2022-09-03T23:17:11;10.70;72.46
65766;SHT31;52915;53.718;19.946;2022-09-03T23:28:06;10.62;72.54
65766;SHT31;52915;53.718;19.946;2022-09-03T23:33:19;10.52;72.79
65766;SHT31;52915;53.718;19.946;2022-09-03T23:38:44;10.44;73.11
